Time;durP1;ratioP1;P1;durP2;ratioP2;P2;SDS_P1;SDS_P2;PMS_P1;PMS_P2;Temp;Humidity;BMP_temperature;BMP_pressure;BME280_temperature;BME280_humidity;BME280_pressure;Samples;Min_cycle;Max_cycle;Signal;HPM_P1;HPM_P2
2023/12/04 00:00:04;;;;;;;8.23;6.43;;;;;;;20.35;40.45;101915.44;4645485;30;20058;-63
2023/12/04 00:02:38;;;;;;;7.97;6.85;;;;;;;20.33;40.58;101911.13;4652591;30;20073;-63
2023/12/04 00:05:06;;;;;;;7.95;6.70;;;;;;;20.30;40.65;101909.53;4646926;30;20058;-63
2023/12/04 00:07:34;;;;;;;11.15;6.45;;;;;;;20.29;40.44;101907.78;4647028;30;20070;-61
2023/12/04 00:10:01;;;;;;;8.10;6.28;;;;;;;20.27;40.46;101899.00;4644665;30;20067;-61
2023/12/04 00:12:28;;;;;;;9.05;7.00;;;;;;;20.27;40.54;101900.84;4646570;30;20055;-61
2023/12/04 00:14:56;;;;;;;18.30;7.25;;;;;;;20.25;40.45;101903.63;4646602;30;20062;-61
2023/12/04 00:17:23;;;;;;;8.73;6.93;;;;;;;20.23;40.41;101909.13;4646650;30;20062;-63
2023/12/04 00:19:51;;;;;;;7.88;6.40;;;;;;;20.22;40.16;101895.78;4643651;30;20063;-63
2023/12/04 00:22:18;;;;;;;8.23;6.18;;;;;;;20.19;40.15;101902.25;4646132;30;20055;-63
2023/12/04 00:24:46;;;;;;;10.52;7.03;;;;;;;20.18;40.10;101894.31;4646851;30;20117;-63
2023/12/04 00:27:13;;;;;;;8.50;7.22;;;;;;;20.17;40.24;101908.69;4646669;30;20050;-63
2023/12/04 00:29:40;;;;;;;10.73;6.30;;;;;;;20.14;40.21;101901.72;4643519;30;20063;-63
2023/12/04 00:32:07;;;;;;;7.55;6.30;;;;;;;20.14;40.15;101909.78;4645825;30;20065;-63
2023/12/04 00:34:35;;;;;;;9.43;6.97;;;;;;;20.11;40.05;101904.63;4646294;30;20140;-63
2023/12/04 00:37:02;;;;;;;8.98;6.55;;;;;;;20.11;40.18;101901.09;4646002;30;20110;-61
2023/12/04 00:39:30;;;;;;;8.95;7.15;;;;;;;20.09;39.96;101903.88;4644117;30;20096;-61
2023/12/04 00:41:58;;;;;;;11.27;7.15;;;;;;;20.08;39.90;101907.53;4645328;30;20062;-61
2023/12/04 00:44:25;;;;;;;8.73;6.75;;;;;;;20.06;39.96;101906.78;4646441;30;20058;-61
2023/12/04 00:46:53;;;;;;;8.45;6.68;;;;;;;20.06;39.89;101900.56;4646746;30;20054;-63
2023/12/04 00:49:20;;;;;;;10.52;7.18;;;;;;;20.05;39.90;101897.00;4643772;30;20055;-63
2023/12/04 00:51:48;;;;;;;7.38;6.50;;;;;;;20.03;39.92;101904.31;4645723;30;20054;-63
2023/12/04 00:54:15;;;;;;;8.23;6.43;;;;;;;20.00;39.73;101894.63;4646146;30;20065;-63
2023/12/04 00:56:43;;;;;;;9.30;6.90;;;;;;;20.00;40.05;101893.78;4646102;30;20047;-61
2023/12/04 00:59:10;;;;;;;9.55;7.53;;;;;;;19.98;39.81;101893.91;4643243;30;20074;-61
2023/12/04 01:01:38;;;;;;;9.32;6.45;;;;;;;19.98;39.87;101888.53;4646250;30;20077;-61
2023/12/04 01:04:05;;;;;;;9.88;7.38;;;;;;;19.96;39.93;101884.22;4646181;30;20055;-61
2023/12/04 01:06:33;;;;;;;7.85;6.38;;;;;;;19.96;39.87;101877.00;4646250;30;20059;-62
2023/12/04 01:09:00;;;;;;;9.75;6.80;;;;;;;19.95;39.79;101880.69;4643352;30;20085;-63
2023/12/04 01:11:27;;;;;;;7.97;6.47;;;;;;;19.93;39.74;101882.63;4645483;30;20051;-63
2023/12/04 01:13:55;;;;;;;9.30;7.10;;;;;;;19.93;39.75;101879.94;4645958;30;20062;-63
2023/12/04 01:16:22;;;;;;;8.27;6.70;;;;;;;19.93;39.69;101874.56;4645889;30;20070;-63
2023/12/04 01:18:49;;;;;;;8.70;6.38;;;;;;;19.92;39.81;101872.81;4643436;30;20530;-63
2023/12/04 01:21:18;;;;;;;8.35;6.22;;;;;;;19.92;39.66;101882.72;4645015;30;20066;-64
2023/12/04 01:23:45;;;;;;;8.98;7.25;;;;;;;19.90;39.96;101874.78;4645946;30;20066;-63
2023/12/04 01:26:13;;;;;;;8.52;6.70;;;;;;;19.89;39.88;101865.00;4645791;30;20055;-61
2023/12/04 01:28:40;;;;;;;8.65;6.53;;;;;;;19.88;39.85;101874.03;4643562;30;20059;-61
2023/12/04 01:31:08;;;;;;;8.10;6.63;;;;;;;19.88;39.64;101865.97;4645700;30;20061;-60
2023/12/04 01:33:35;;;;;;;9.52;7.05;;;;;;;19.87;39.95;101863.41;4640678;30;20059;-61
2023/12/04 01:36:03;;;;;;;9.00;6.60;;;;;;;19.86;39.78;101859.00;4642361;30;20055;-61
2023/12/04 01:38:30;;;;;;;7.40;6.57;;;;;;;19.85;39.78;101863.50;4642977;30;20071;-61
2023/12/04 01:40:58;;;;;;;8.60;7.68;;;;;;;19.84;39.89;101859.09;4645700;30;20055;-61
2023/12/04 01:43:25;;;;;;;9.00;6.80;;;;;;;19.84;39.70;101858.22;4645564;30;20054;-60
2023/12/04 01:45:54;;;;;;;9.32;6.90;;;;;;;19.83;39.73;101861.91;4645844;30;20051;-61
2023/12/04 01:48:22;;;;;;;8.50;6.63;;;;;;;19.81;39.63;101856.66;4642849;30;20063;-61
2023/12/04 01:50:49;;;;;;;8.40;6.78;;;;;;;19.81;39.68;101855.75;4645437;30;20059;-60
2023/12/04 01:53:17;;;;;;;9.23;7.18;;;;;;;19.81;39.61;101855.75;4660191;30;20059;-61
2023/12/04 01:55:45;;;;;;;8.85;6.93;;;;;;;19.80;39.64;101859.41;4649134;30;20070;-62
2023/12/04 01:58:13;;;;;;;10.57;7.20;;;;;;;19.79;39.69;101863.94;4646058;30;20056;-63
2023/12/04 02:00:40;;;;;;;7.60;6.45;;;;;;;19.78;39.75;101856.00;4649212;30;20062;-63
2023/12/04 02:03:09;;;;;;;7.70;6.75;;;;;;;19.76;39.85;101838.13;4648706;30;20059;-63
2023/12/04 02:05:37;;;;;;;8.77;7.13;;;;;;;19.76;39.66;101834.59;4647486;30;20062;-61
2023/12/04 02:08:05;;;;;;;8.40;7.00;;;;;;;19.74;39.80;101829.34;4645996;30;20064;-61
2023/12/04 02:10:32;;;;;;;7.80;6.60;;;;;;;19.74;39.86;101828.50;4628698;30;20407;-61
2023/12/04 02:13:00;;;;;;;7.32;6.35;;;;;;;19.72;39.77;101833.94;4648704;30;20065;-61
2023/12/04 02:15:29;;;;;;;7.25;6.25;;;;;;;19.72;39.80;101830.41;4649068;30;20077;-62
2023/12/04 02:17:57;;;;;;;9.15;6.60;;;;;;;19.70;39.88;101833.22;4646423;30;20051;-62
2023/12/04 02:20:34;;;;;;;8.80;7.22;;;;;;;19.70;39.91;101843.97;4645012;30;20067;-63
2023/12/04 02:23:02;;;;;;;7.70;6.43;;;;;;;19.69;39.72;101836.88;4643713;30;20066;-63
2023/12/04 02:25:30;;;;;;;9.35;7.22;;;;;;;19.67;39.95;101841.50;4647248;30;20058;-62
2023/12/04 02:28:11;;;;;;;7.85;6.70;;;;;;;19.67;39.75;101843.31;4647252;30;20062;-63
2023/12/04 02:30:42;;;;;;;8.80;7.25;;;;;;;19.67;39.93;101846.00;4648498;30;20062;-63
2023/12/04 02:33:13;;;;;;;7.97;6.65;;;;;;;19.66;39.64;101842.47;4648248;30;20062;-63
2023/12/04 02:35:42;;;;;;;7.72;5.93;;;;;;;19.65;39.79;101850.66;4644933;30;20056;-62
2023/12/04 02:38:10;;;;;;;6.72;6.00;;;;;;;19.64;39.67;101856.97;4648110;30;20415;-63
2023/12/04 02:40:37;;;;;;;8.10;6.25;;;;;;;19.63;39.78;101856.09;4648302;30;20535;-63
2023/12/04 02:43:05;;;;;;;7.07;6.05;;;;;;;19.63;39.74;101866.84;4648206;30;20054;-63
2023/12/04 02:45:35;;;;;;;10.73;6.55;;;;;;;19.62;39.62;101873.19;4645674;30;20055;-62
2023/12/04 02:48:03;;;;;;;9.32;7.13;;;;;;;19.61;39.53;101871.50;4646682;30;20503;-60
2023/12/04 02:50:30;;;;;;;9.25;6.75;;;;;;;19.60;39.61;101869.72;4642589;30;20059;-60
2023/12/04 02:52:57;;;;;;;7.38;6.57;;;;;;;19.59;39.61;101873.38;4647464;30;20055;-60
2023/12/04 02:55:25;;;;;;;7.05;6.20;;;;;;;19.58;39.59;101871.66;4645895;30;20059;-62
2023/12/04 02:57:52;;;;;;;7.63;6.28;;;;;;;19.58;39.59;101866.28;4648098;30;20063;-62
2023/12/04 03:00:20;;;;;;;7.75;6.90;;;;;;;19.58;39.62;101865.44;4647974;30;20055;-63
2023/12/04 03:02:47;;;;;;;8.00;6.07;;;;;;;19.59;39.86;101859.09;4647290;30;20526;-63
2023/12/04 03:05:15;;;;;;;8.25;6.28;;;;;;;19.59;39.58;101846.53;4644921;30;20059;-64
2023/12/04 03:07:42;;;;;;;7.90;6.28;;;;;;;19.58;39.60;101844.81;4647927;30;20063;-61
2023/12/04 03:10:09;;;;;;;9.73;6.38;;;;;;;19.59;39.53;101856.41;4648057;30;20054;-61
2023/12/04 03:12:37;;;;;;;7.97;6.50;;;;;;;19.57;39.77;101858.31;4647706;30;20062;-61
2023/12/04 03:15:05;;;;;;;8.68;6.00;;;;;;;19.57;39.79;101861.00;4645430;30;20432;-61
2023/12/04 03:17:32;;;;;;;7.93;6.25;;;;;;;19.56;39.83;101853.94;4647604;30;20062;-61
2023/12/04 03:20:00;;;;;;;8.32;6.28;;;;;;;19.55;39.80;101861.13;4647623;30;20408;-60
2023/12/04 03:22:27;;;;;;;9.13;6.85;;;;;;;19.55;39.73;101858.44;4647296;30;20059;-61
2023/12/04 03:24:54;;;;;;;7.13;6.43;;;;;;;19.54;39.60;101856.75;4645122;30;20055;-60
2023/12/04 03:27:22;;;;;;;9.20;6.03;;;;;;;19.52;39.51;101851.44;4647518;30;20054;-60
2023/12/04 03:29:49;;;;;;;7.93;6.63;;;;;;;19.52;39.55;101856.81;4647486;30;20376;-61
2023/12/04 03:32:16;;;;;;;8.38;6.28;;;;;;;19.50;39.49;101853.41;4647243;30;20492;-61
2023/12/04 03:34:44;;;;;;;7.80;6.85;;;;;;;19.51;39.47;101854.25;4645375;30;20059;-61
2023/12/04 03:37:11;;;;;;;7.45;5.80;;;;;;;19.49;39.65;101857.06;4647561;30;20066;-61
2023/12/04 03:39:38;;;;;;;8.27;6.30;;;;;;;19.49;39.45;101850.84;4647533;30;20057;-61
2023/12/04 03:42:06;;;;;;;7.68;6.07;;;;;;;19.48;39.65;101855.31;4646825;30;20058;-61
2023/12/04 03:44:33;;;;;;;7.15;6.45;;;;;;;19.48;39.48;101849.09;4642238;30;20064;-61
2023/12/04 03:47:00;;;;;;;8.10;5.78;;;;;;;19.47;39.51;101850.94;4647546;30;20435;-61
2023/12/04 03:49:28;;;;;;;7.57;6.15;;;;;;;19.46;39.53;101853.72;4646890;30;20162;-60
2023/12/04 03:51:55;;;;;;;7.22;6.28;;;;;;;19.44;39.54;101847.59;4646898;30;20499;-61
2023/12/04 03:54:22;;;;;;;7.15;5.57;;;;;;;19.44;39.38;101837.72;4644596;30;20055;-61
2023/12/04 03:56:50;;;;;;;7.18;6.32;;;;;;;19.43;39.50;101838.69;4646570;30;20518;-61
2023/12/04 03:59:17;;;;;;;7.72;6.40;;;;;;;19.43;39.61;101832.47;4647028;30;20053;-61
2023/12/04 04:01:44;;;;;;;7.68;6.43;;;;;;;19.42;39.58;101845.03;4646659;30;20110;-61
2023/12/04 04:04:12;;;;;;;8.05;6.10;;;;;;;19.41;39.60;101847.84;4638199;30;20127;-61
2023/12/04 04:06:39;;;;;;;7.53;6.05;;;;;;;19.40;39.53;101849.63;4647178;30;20070;-62
2023/12/04 04:09:07;;;;;;;7.22;6.45;;;;;;;19.40;39.55;101846.94;4646894;30;20518;-63
2023/12/04 04:11:35;;;;;;;8.45;6.38;;;;;;;19.40;39.49;101844.25;4647075;30;20059;-63
2023/12/04 04:14:02;;;;;;;8.75;6.22;;;;;;;19.38;39.48;101848.03;4644495;30;20059;-63
2023/12/04 04:16:30;;;;;;;7.68;6.22;;;;;;;19.37;39.52;101847.19;4646890;30;20082;-61
2023/12/04 04:18:57;;;;;;;7.18;6.00;;;;;;;19.36;39.54;101849.97;4646621;30;20055;-60
2023/12/04 04:21:24;;;;;;;6.80;6.07;;;;;;;19.36;39.53;101856.19;4646622;30;20106;-61
2023/12/04 04:23:53;;;;;;;6.38;5.45;;;;;;;19.35;39.49;101857.16;4644237;30;20055;-60
2023/12/04 04:26:20;;;;;;;8.43;6.90;;;;;;;19.35;39.59;101850.94;4646386;30;20067;-62
2023/12/04 04:28:48;;;;;;;9.40;6.95;;;;;;;19.33;39.52;101855.56;4646288;30;20058;-63
2023/12/04 04:31:15;;;;;;;7.32;6.07;;;;;;;19.33;39.47;101851.06;4646108;30;20168;-63
2023/12/04 04:33:42;;;;;;;7.63;6.60;;;;;;;19.32;39.49;101848.44;4643609;30;20055;-63
2023/12/04 04:36:11;;;;;;;6.47;5.63;;;;;;;19.31;39.60;101842.22;4645506;30;20201;-62
2023/12/04 04:38:40;;;;;;;9.15;6.38;;;;;;;19.30;39.46;101832.47;4646388;30;20058;-63
2023/12/04 04:41:12;;;;;;;8.52;6.47;;;;;;;19.30;39.63;101826.25;4645710;30;20055;-63
2023/12/04 04:43:39;;;;;;;7.07;5.95;;;;;;;19.27;39.62;101827.31;4641721;30;20504;-63
2023/12/04 04:46:07;;;;;;;8.07;6.00;;;;;;;19.27;39.55;101836.22;4638040;30;20058;-61
2023/12/04 04:48:35;;;;;;;7.28;6.53;;;;;;;19.27;39.62;101829.97;4646174;30;20511;-61
2023/12/04 04:51:02;;;;;;;8.45;6.20;;;;;;;19.27;39.52;101841.56;4645345;30;20419;-61
2023/12/04 04:53:30;;;;;;;7.30;5.93;;;;;;;19.26;39.49;101825.59;4644345;30;20060;-61
2023/12/04 04:55:57;;;;;;;6.80;6.10;;;;;;;19.26;39.60;101828.28;4646134;30;20058;-61
2023/12/04 04:58:25;;;;;;;8.40;6.28;;;;;;;19.25;39.46;101838.16;4645964;30;20066;-61
2023/12/04 05:00:52;;;;;;;7.55;6.38;;;;;;;19.25;39.78;101831.94;4658379;30;20057;-61
2023/12/04 05:03:19;;;;;;;7.57;6.00;;;;;;;19.24;39.71;101836.44;4644342;30;20082;-61
2023/12/04 05:05:49;;;;;;;7.00;6.20;;;;;;;19.22;39.79;101833.00;4646001;30;20059;-62
2023/12/04 05:08:16;;;;;;;6.57;5.85;;;;;;;19.22;39.56;101824.94;4646030;30;20500;-63
2023/12/04 05:10:44;;;;;;;7.13;5.88;;;;;;;19.22;39.71;101821.41;4645358;30;20066;-63
2023/12/04 05:13:11;;;;;;;8.43;6.88;;;;;;;19.21;39.77;101817.00;4644344;30;20059;-63
2023/12/04 05:15:39;;;;;;;7.53;5.70;;;;;;;19.20;39.79;101813.47;4646013;30;20063;-61
2023/12/04 05:18:06;;;;;;;6.90;5.32;;;;;;;19.20;39.63;101812.59;4643164;30;20055;-60
2023/12/04 05:20:33;;;;;;;8.20;6.20;;;;;;;19.19;39.70;101817.09;4643104;30;20062;-61
2023/12/04 05:23:01;;;;;;;6.72;5.68;;;;;;;19.19;39.64;101822.47;4644066;30;20450;-60
2023/12/04 05:25:30;;;;;;;7.88;5.63;;;;;;;19.17;39.66;101819.03;4645584;30;20054;-62
2023/12/04 05:28:07;;;;;;;7.85;6.47;;;;;;;19.17;39.72;101821.72;4645699;30;20055;-63
2023/12/04 05:30:34;;;;;;;7.15;6.03;;;;;;;19.16;39.64;101813.75;4641989;30;20078;-63
2023/12/04 05:33:02;;;;;;;7.40;6.38;;;;;;;19.14;39.76;101821.94;4645491;30;20058;-63
2023/12/04 05:35:32;;;;;;;8.13;6.07;;;;;;;19.14;39.72;101819.25;4646290;30;20057;-61
2023/12/04 05:38:00;;;;;;;6.75;5.15;;;;;;;19.15;39.73;101826.31;4645497;30;20078;-61
2023/12/04 05:40:27;;;;;;;7.38;6.28;;;;;;;19.13;39.80;101827.41;4642769;30;20059;-61
2023/12/04 05:42:54;;;;;;;6.82;5.43;;;;;;;19.13;39.76;101827.41;4635492;30;20519;-60
2023/12/04 05:45:22;;;;;;;6.88;5.40;;;;;;;19.13;39.70;101824.72;4645890;30;20070;-60
2023/12/04 05:47:49;;;;;;;6.30;5.70;;;;;;;19.11;39.43;101824.81;4645719;30;20055;-63
2023/12/04 05:50:18;;;;;;;8.70;5.88;;;;;;;19.11;39.65;101835.56;4643004;30;20056;-63
2023/12/04 05:52:45;;;;;;;6.97;5.13;;;;;;;19.11;39.55;101823.97;4635770;30;20058;-63
2023/12/04 05:55:12;;;;;;;6.50;5.18;;;;;;;19.11;39.63;101827.50;4646156;30;20051;-62
2023/12/04 05:57:40;;;;;;;5.78;5.07;;;;;;;19.11;39.98;101819.44;4635529;30;20504;-63
2023/12/04 06:00:12;;;;;;;6.32;5.35;;;;;;;19.11;39.87;101819.44;4642836;30;20054;-63
2023/12/04 06:02:41;;;;;;;6.38;4.78;;;;;;;19.11;39.75;101827.50;4626485;30;20058;-63
2023/12/04 06:05:10;;;;;;;8.30;5.80;;;;;;;19.11;39.86;101814.09;4645494;30;20047;-63
2023/12/04 06:07:38;;;;;;;6.35;5.15;;;;;;;19.10;39.80;101817.75;4645439;30;20507;-61
2023/12/04 06:10:06;;;;;;;6.10;4.78;;;;;;;19.08;39.69;101819.69;4643164;30;20431;-61
2023/12/04 06:12:33;;;;;;;4.97;4.43;;;;;;;19.07;39.75;101815.25;4645245;30;20119;-60
2023/12/04 06:15:01;;;;;;;7.07;5.90;;;;;;;19.07;39.97;101823.31;4645112;30;20047;-60
2023/12/04 06:17:28;;;;;;;7.97;5.38;;;;;;;19.07;39.97;101825.16;4645007;30;20054;-62
2023/12/04 06:19:56;;;;;;;6.38;5.15;;;;;;;19.05;40.00;101833.31;4642889;30;20051;-63
2023/12/04 06:22:23;;;;;;;7.20;5.30;;;;;;;19.04;39.98;101834.28;4646214;30;20078;-63
2023/12/04 06:24:52;;;;;;;7.40;5.22;;;;;;;19.02;39.93;101837.06;4645269;30;20065;-63
2023/12/04 06:27:20;;;;;;;6.22;5.13;;;;;;;19.03;39.92;101840.59;4645032;30;20094;-61
2023/12/04 06:29:49;;;;;;;7.68;5.38;;;;;;;19.01;39.87;101842.53;4643193;30;20135;-60
2023/12/04 06:32:19;;;;;;;6.20;4.65;;;;;;;19.01;39.87;101842.53;4645418;30;20393;-60
2023/12/04 06:34:47;;;;;;;6.68;4.90;;;;;;;19.01;39.89;101847.91;4643018;30;20055;-61
2023/12/04 06:37:15;;;;;;;5.60;4.70;;;;;;;18.99;39.85;101848.00;4643822;30;20062;-61
2023/12/04 06:39:45;;;;;;;6.90;5.57;;;;;;;18.98;39.99;101851.66;4644083;30;20508;-61
2023/12/04 06:42:13;;;;;;;6.38;5.35;;;;;;;18.98;39.97;101851.66;4648293;30;20066;-61
2023/12/04 06:44:41;;;;;;;9.13;5.43;;;;;;;18.97;39.96;101846.41;4648765;30;20515;-61
2023/12/04 06:47:09;;;;;;;6.95;5.35;;;;;;;18.97;39.91;101844.56;4646893;30;20059;-61
2023/12/04 06:49:37;;;;;;;5.85;4.93;;;;;;;18.97;40.07;101846.41;4646784;30;20082;-61
2023/12/04 06:52:04;;;;;;;8.07;5.22;;;;;;;18.95;39.91;101849.16;4647763;30;20071;-61
2023/12/04 06:54:32;;;;;;;5.40;4.65;;;;;;;18.95;39.98;101840.25;4648223;30;20058;-61
2023/12/04 06:56:59;;;;;;;7.20;4.45;;;;;;;18.95;39.95;101849.16;4646287;30;20062;-61
2023/12/04 06:59:27;;;;;;;5.90;4.43;;;;;;;18.93;39.94;101843.06;4647360;30;20523;-60
2023/12/04 07:01:54;;;;;;;7.43;5.03;;;;;;;18.93;40.01;101840.38;4647886;30;20503;-61
2023/12/04 07:04:22;;;;;;;6.03;4.47;;;;;;;18.93;39.94;101842.22;4648128;30;20054;-60
2023/12/04 07:06:49;;;;;;;6.60;4.75;;;;;;;18.91;40.03;101839.59;4646087;30;20107;-62
2023/12/04 07:09:17;;;;;;;6.45;4.50;;;;;;;18.92;40.01;101849.41;4646860;30;20062;-63
2023/12/04 07:11:44;;;;;;;6.25;4.90;;;;;;;18.93;40.12;101839.53;4647573;30;20051;-63
2023/12/04 07:14:12;;;;;;;5.95;4.88;;;;;;;18.92;40.00;101835.97;4647732;30;20066;-63
2023/12/04 07:16:42;;;;;;;5.80;4.60;;;;;;;18.91;40.12;101831.56;4645714;30;20423;-62
2023/12/04 07:19:10;;;;;;;5.95;4.53;;;;;;;18.89;40.09;101830.81;4647803;30;20055;-63
2023/12/04 07:21:39;;;;;;;5.75;4.63;;;;;;;18.90;39.97;101832.53;4647536;30;20523;-63
2023/12/04 07:24:07;;;;;;;6.97;4.40;;;;;;;18.90;40.13;101834.34;4647636;30;20396;-63
2023/12/04 07:26:35;;;;;;;5.72;4.63;;;;;;;18.90;40.14;101837.03;4645613;30;20054;-63
2023/12/04 07:29:03;;;;;;;6.20;4.90;;;;;;;18.88;40.08;101834.47;4647548;30;20058;-62
2023/12/04 07:31:31;;;;;;;5.68;4.47;;;;;;;18.88;40.20;101828.22;4647441;30;20062;-63
2023/12/04 07:34:00;;;;;;;5.57;4.53;;;;;;;18.87;40.20;101821.16;4647380;30;20521;-63
2023/12/04 07:36:28;;;;;;;5.85;5.03;;;;;;;18.88;40.16;101817.50;4645355;30;20055;-61
2023/12/04 07:38:56;;;;;;;7.32;4.50;;;;;;;18.87;40.11;101816.63;4647915;30;20415;-61
2023/12/04 07:41:23;;;;;;;5.03;4.20;;;;;;;18.87;40.21;101821.16;4647491;30;20445;-61
2023/12/04 07:43:51;;;;;;;7.20;4.85;;;;;;;18.86;40.12;101814.91;4647530;30;20055;-61
2023/12/04 07:46:18;;;;;;;5.18;4.05;;;;;;;18.87;40.38;101821.16;4644544;30;20063;-63
2023/12/04 07:48:46;;;;;;;4.93;4.15;;;;;;;18.86;40.25;101819.44;4637151;30;20058;-62
2023/12/04 07:51:14;;;;;;;6.55;5.03;;;;;;;18.87;40.21;101824.69;4647156;30;20058;-62
2023/12/04 07:53:41;;;;;;;5.43;4.15;;;;;;;18.87;40.50;101827.38;4647580;30;20112;-62
2023/12/04 07:56:09;;;;;;;6.68;4.50;;;;;;;18.87;40.16;101829.19;4644455;30;20059;-60
2023/12/04 07:58:36;;;;;;;5.65;4.50;;;;;;;18.87;40.09;101842.59;4639379;30;20061;-60
2023/12/04 08:01:04;;;;;;;5.38;4.60;;;;;;;18.85;40.11;101842.72;4647372;30;20471;-60
2023/12/04 08:03:32;;;;;;;6.95;4.70;;;;;;;18.87;40.00;101845.28;4647093;30;20066;-60
2023/12/04 08:05:59;;;;;;;6.10;4.40;;;;;;;18.91;39.88;101844.13;4642639;30;20054;-61
2023/12/04 08:08:27;;;;;;;5.50;4.65;;;;;;;18.97;39.66;101849.09;4638118;30;20062;-64
2023/12/04 08:10:54;;;;;;;6.97;5.40;;;;;;;18.99;39.66;101841.78;4646974;30;20046;-62
2023/12/04 08:13:21;;;;;;;8.45;4.82;;;;;;;19.03;39.89;101849.50;4647207;30;20058;-61
2023/12/04 08:15:49;;;;;;;6.55;4.85;;;;;;;19.07;39.83;101847.47;4643936;30;20069;-61
2023/12/04 08:18:16;;;;;;;7.10;4.80;;;;;;;19.10;39.88;101846.41;4644408;30;20054;-63
2023/12/04 08:20:44;;;;;;;7.05;4.07;;;;;;;19.12;39.75;101842.66;4637752;30;20503;-60
2023/12/04 08:23:11;;;;;;;6.40;4.40;;;;;;;19.15;39.66;101846.94;4642395;30;20058;-56
2023/12/04 08:25:38;;;;;;;6.93;4.72;;;;;;;19.16;39.88;101851.34;4642802;30;20059;-56
2023/12/04 08:28:08;;;;;;;6.82;5.38;;;;;;;19.16;39.81;101852.22;4625501;30;20065;-58
2023/12/04 08:30:36;;;;;;;7.43;4.80;;;;;;;19.19;39.69;101853.81;4646853;30;20059;-63
2023/12/04 08:33:04;;;;;;;8.52;5.07;;;;;;;19.18;39.64;101836.84;4642915;30;20408;-64
2023/12/04 08:35:31;;;;;;;7.22;4.82;;;;;;;19.19;39.69;101825.16;4643102;30;20059;-62
2023/12/04 08:37:59;;;;;;;6.63;4.80;;;;;;;19.22;40.05;101832.13;4636122;30;20066;-64
2023/12/04 08:40:27;;;;;;;5.50;4.53;;;;;;;19.22;39.71;101822.25;4647363;30;20058;-66
2023/12/04 08:42:54;;;;;;;6.60;4.47;;;;;;;19.23;40.04;101812.38;4643877;30;20082;-62
2023/12/04 08:45:22;;;;;;;5.82;4.10;;;;;;;19.23;39.93;101813.22;4642967;30;20051;-55
2023/12/04 08:47:49;;;;;;;6.80;4.00;;;;;;;19.24;39.95;101827.50;4636346;30;20055;-62
2023/12/04 08:50:17;;;;;;;6.50;4.53;;;;;;;19.23;39.74;101823.97;4645752;30;20108;-60
2023/12/04 08:52:44;;;;;;;5.93;4.35;;;;;;;19.23;39.68;101818.59;4645279;30;20400;-61
2023/12/04 08:55:12;;;;;;;4.85;3.92;;;;;;;19.24;40.01;101817.66;4642778;30;20904;-59
2023/12/04 08:57:39;;;;;;;5.90;4.75;;;;;;;19.25;39.83;101829.25;4639449;30;20058;-65
2023/12/04 09:00:08;;;;;;;6.22;4.35;;;;;;;19.24;39.80;101823.03;4645860;30;20419;-63
2023/12/04 09:02:36;;;;;;;7.10;4.20;;;;;;;19.26;39.50;101825.59;4645619;30;20377;-60
2023/12/04 09:05:12;;;;;;;5.35;4.78;;;;;;;19.26;39.48;101823.75;4623829;30;20055;-64
2023/12/04 09:07:40;;;;;;;5.88;4.68;;;;;;;19.24;39.29;101806.91;4640974;30;20058;-67
2023/12/04 09:10:27;;;;;;;6.57;5.28;;;;;;;19.24;39.52;101790.81;4645995;30;20054;-62
2023/12/04 09:13:15;;;;;;;5.68;4.93;;;;;;;19.25;39.42;101783.63;4633822;30;20050;-61
2023/12/04 09:15:42;;;;;;;8.63;5.40;;;;;;;19.24;39.56;101800.66;4644142;30;20062;-53
2023/12/04 09:18:10;;;;;;;5.85;4.97;;;;;;;19.23;39.67;101799.81;4642250;30;20407;-57
2023/12/04 09:20:37;;;;;;;6.95;5.10;;;;;;;19.23;39.89;101790.91;4642373;30;20065;-57
2023/12/04 09:23:05;;;;;;;6.15;5.07;;;;;;;19.23;39.47;101778.31;4635590;30;20054;-62
2023/12/04 09:25:36;;;;;;;8.68;5.32;;;;;;;19.23;39.35;101764.91;4645838;30;20051;-66
2023/12/04 09:28:04;;;;;;;6.63;4.95;;;;;;;19.23;39.21;101764.91;4643842;30;20062;-63
2023/12/04 09:30:31;;;;;;;7.85;5.50;;;;;;;19.22;39.37;101767.72;4643072;30;20059;-64
2023/12/04 09:32:58;;;;;;;7.78;4.85;;;;;;;19.23;39.42;101770.28;4637671;30;20055;-63
2023/12/04 09:35:26;;;;;;;7.07;5.18;;;;;;;19.22;39.31;101756.97;4644955;30;20067;-58
2023/12/04 09:37:54;;;;;;;7.65;5.57;;;;;;;19.22;39.47;101756.97;4644802;30;20080;-62
2023/12/04 09:40:21;;;;;;;7.60;4.95;;;;;;;19.21;39.37;101750.75;4642879;30;20059;-58
2023/12/04 09:42:49;;;;;;;6.18;5.18;;;;;;;19.20;38.96;101759.78;4639131;30;20066;-61
2023/12/04 09:45:19;;;;;;;7.35;5.60;;;;;;;19.21;38.97;101753.44;4645658;30;20403;-63
2023/12/04 09:47:49;;;;;;;6.32;4.97;;;;;;;19.22;39.10;101768.56;4643616;30;20066;-65
2023/12/04 09:50:22;;;;;;;6.55;4.70;;;;;;;19.20;38.90;101769.63;4643281;30;20066;-64
2023/12/04 09:52:50;;;;;;;6.97;5.43;;;;;;;19.20;38.74;101765.16;4641285;30;20388;-65
2023/12/04 09:55:18;;;;;;;7.72;5.65;;;;;;;19.20;38.89;101767.84;4645775;30;20058;-61
2023/12/04 09:57:46;;;;;;;6.72;5.55;;;;;;;19.19;38.75;101751.81;4634446;30;20063;-58
2023/12/04 10:00:14;;;;;;;7.35;5.07;;;;;;;19.19;38.75;101749.13;4642905;30;20059;-58
2023/12/04 10:02:42;;;;;;;10.05;5.28;;;;;;;19.19;38.84;101727.66;4642483;30;20058;-58
2023/12/04 10:05:11;;;;;;;8.13;5.85;;;;;;;19.19;38.67;101708.88;4643271;30;20086;-59
2023/12/04 10:07:38;;;;;;;7.10;5.85;;;;;;;19.19;38.79;101685.56;4633779;30;20518;-59
2023/12/04 10:10:09;;;;;;;7.22;5.07;;;;;;;19.18;38.85;101673.13;4642480;30;20059;-64
2023/12/04 10:12:36;;;;;;;8.02;5.65;;;;;;;19.18;38.86;101667.75;4644252;30;20523;-58
2023/12/04 10:15:07;;;;;;;9.07;5.20;;;;;;;19.18;38.87;101677.63;4646283;30;20389;-66
2023/12/04 10:17:38;;;;;;;7.43;6.13;;;;;;;19.18;38.88;101677.63;4639958;30;20059;-58
2023/12/04 10:20:11;;;;;;;7.30;5.57;;;;;;;19.18;38.87;101680.31;4647002;30;20059;-58
2023/12/04 10:22:40;;;;;;;;;;;;;;;19.15;38.77;101692.13;4648914;30;20050;-66
2023/12/04 10:25:15;;;;;;;6.22;5.53;;;;;;;19.18;38.86;101696.41;4648314;30;19932;-58
2023/12/04 10:27:43;;;;;;;7.38;5.03;;;;;;;19.16;38.97;101704.59;4653098;30;20051;-64
2023/12/04 10:30:26;;;;;;;5.75;4.88;;;;;;;19.16;38.84;101704.59;4648097;30;20051;-59
2023/12/04 10:32:55;;;;;;;6.30;4.88;;;;;;;19.14;38.90;101690.41;4648232;30;20084;-65
2023/12/04 10:35:22;;;;;;;5.40;4.90;;;;;;;19.15;38.89;101677.84;4645602;30;20059;-65
2023/12/04 10:37:55;;;;;;;6.95;4.53;;;;;;;19.14;39.09;101674.31;4644052;30;20063;-64
2023/12/04 10:40:26;;;;;;;7.63;5.43;;;;;;;19.14;38.57;101670.78;4648312;30;20077;-65
2023/12/04 10:43:09;;;;;;;7.55;5.30;;;;;;;19.10;37.92;101672.81;4642403;30;20051;-65
2023/12/04 10:45:40;;;;;;;8.65;5.43;;;;;;;19.05;37.72;101661.56;4645354;30;20477;-59
2023/12/04 10:48:10;;;;;;;7.78;4.95;;;;;;;19.04;37.99;101667.91;4633440;31;20412;-64
2023/12/04 10:50:40;;;;;;;6.72;5.57;;;;;;;19.03;38.15;101658.97;4643475;30;20527;-64
2023/12/04 10:53:09;;;;;;;6.82;5.20;;;;;;;19.04;38.34;101659.84;4644642;30;20055;-63
2023/12/04 10:55:37;;;;;;;6.97;5.03;;;;;;;19.03;38.34;101664.31;4646477;30;20103;-64
2023/12/04 10:58:14;;;;;;;6.50;5.28;;;;;;;19.05;38.18;101664.25;4639644;30;20405;-60
2023/12/04 11:00:42;;;;;;;5.68;5.00;;;;;;;19.07;38.12;101654.22;4646583;30;20059;-60
2023/12/04 11:03:14;;;;;;;7.22;5.60;;;;;;;19.07;38.67;101639.97;4635314;30;20055;-62
2023/12/04 11:05:41;;;;;;;6.10;5.07;;;;;;;19.06;38.40;101638.25;4647709;30;20081;-54
2023/12/04 11:08:14;;;;;;;5.57;4.22;;;;;;;19.07;38.33;101632.75;4642215;30;20500;-60
2023/12/04 11:10:47;;;;;;;6.43;5.25;;;;;;;19.08;38.26;101633.63;4645531;30;20063;-58
2023/12/04 11:13:21;;;;;;;6.65;5.20;;;;;;;19.08;39.13;101631.81;4647776;30;20065;-53
2023/12/04 11:15:52;;;;;;;5.30;4.20;;;;;;;19.10;40.12;101626.31;4647138;30;20051;-63
2023/12/04 11:18:23;;;;;;;7.10;5.13;;;;;;;19.09;41.15;101622.78;4644549;30;20055;-66
2023/12/04 11:20:56;;;;;;;5.75;4.32;;;;;;;19.10;41.52;101623.66;4644311;30;20063;-66
2023/12/04 11:23:25;;;;;;;6.30;5.07;;;;;;;19.10;42.07;101616.44;4638528;30;20062;-62
2023/12/04 11:25:53;;;;;;;5.30;4.22;;;;;;;19.09;42.45;101612.06;4645985;30;20055;-53
2023/12/04 11:28:21;;;;;;;6.15;4.55;;;;;;;19.07;42.62;101613.97;4644335;30;20423;-50